Terminal Aerodrome Forecast
Issued by NWS

Home | Current Version | Previous Version | Text Only | Print | Product List | Glossary On
Versions: 1 2 3 4 5 6 7 8 9 10 11 12 13 14 15 16 17 18 19 20 21 22 23
000
FTUS43 KLSX 060115 AAA
TAFCPS
TAF AMD
KCPS 060115Z 0601/0624 11006KT P6SM SCT015 BKN250
      TEMPO 0601/0603 BKN015
     FM060600 VRB03KT 5SM BR OVC050
     FM060700 00000KT 4SM BR VCSH OVC035
     FM060900 VRB03KT 4SM BR OVC015
     FM061200 32005KT 4SM BR OVC020
     FM061600 31011G17KT P6SM BKN020
     FM061800 31012G20KT P6SM SCT025=

USA.gov is the U.S. government's official web portal to all federal, state and local government web resources and services.